Time;durP1;ratioP1;P1;durP2;ratioP2;P2;SDS_P1;SDS_P2;PMS_P1;PMS_P2;Temp;Humidity;BMP_temperature;BMP_pressure;BME280_temperature;BME280_humidity;BME280_pressure;Samples;Min_cycle;Max_cycle;Signal;HPM_P1;HPM_P2
2020/12/09 00:01:22;;;;;;;20.33;15.05;;;8.50;99.90;;;;;;4976524;28;20703;-94
2020/12/09 00:03:48;;;;;;;22.15;14.68;;;8.20;99.90;;;;;;4975751;28;20023;-85
2020/12/09 00:06:14;;;;;;;20.85;13.73;;;8.20;99.90;;;;;;4942348;28;20134;-91
2020/12/09 00:08:40;;;;;;;21.20;14.55;;;8.20;99.90;;;;;;4958247;28;20126;-89
2020/12/09 00:11:25;;;;;;;23.88;15.20;;;8.30;99.90;;;;;;4976196;28;20490;-93
2020/12/09 00:13:52;;;;;;;23.48;13.98;;;8.20;99.90;;;;;;4942181;28;20042;-86
2020/12/09 00:16:18;;;;;;;22.50;14.05;;;8.40;99.90;;;;;;4960462;28;20034;-88
2020/12/09 00:18:45;;;;;;;21.73;13.65;;;8.50;99.90;;;;;;4980428;28;20027;-93
2020/12/09 00:21:17;;;;;;;24.92;14.07;;;8.50;99.90;;;;;;4979086;28;20449;-95
2020/12/09 00:23:44;;;;;;;19.65;13.18;;;8.50;99.90;;;;;;4976434;28;20508;-89
2020/12/09 00:26:10;;;;;;;24.05;13.50;;;8.50;99.90;;;;;;4958687;28;20010;-89
2020/12/09 00:28:35;;;;;;;19.20;12.48;;;8.40;99.90;;;;;;4974811;28;20108;-95
2020/12/09 00:31:01;;;;;;;18.35;12.30;;;8.10;99.90;;;;;;4958468;28;20043;-92
2020/12/09 00:33:27;;;;;;;20.92;13.30;;;8.20;99.90;;;;;;4959240;28;20031;-88
2020/12/09 00:35:53;;;;;;;23.88;14.15;;;8.30;99.90;;;;;;4959815;28;20015;-94
2020/12/09 00:38:18;;;;;;;21.73;12.80;;;8.40;99.90;;;;;;4958788;28;20375;-95
2020/12/09 00:40:44;;;;;;;19.30;11.98;;;8.40;99.90;;;;;;4958628;28;20035;-89
2020/12/09 00:43:10;;;;;;;20.98;13.32;;;8.40;99.90;;;;;;4958524;28;20504;-84
2020/12/09 00:45:37;;;;;;;18.40;12.55;;;8.50;99.90;;;;;;4976800;28;20038;-87
2020/12/09 00:48:02;;;;;;;18.05;13.10;;;8.50;99.90;;;;;;4977837;28;20035;-91
2020/12/09 00:50:28;;;;;;;20.00;12.80;;;8.50;99.90;;;;;;4962842;28;20030;-94
2020/12/09 00:52:54;;;;;;;18.42;12.55;;;8.50;99.90;;;;;;4964421;28;20027;-92
2020/12/09 00:55:20;;;;;;;20.00;13.73;;;8.50;99.90;;;;;;4969616;28;20019;-93
2020/12/09 00:57:46;;;;;;;21.15;13.85;;;8.40;99.90;;;;;;4965962;28;20078;-92
2020/12/09 01:00:12;;;;;;;22.90;14.07;;;8.50;99.90;;;;;;4976910;28;20019;-92
2020/12/09 01:02:38;;;;;;;22.65;15.10;;;8.50;99.90;;;;;;4962581;28;20054;-91
2020/12/09 01:05:07;;;;;;;23.80;15.20;;;8.60;99.90;;;;;;4981842;28;20007;-84
2020/12/09 01:07:33;;;;;;;22.85;14.90;;;8.70;99.90;;;;;;4963615;28;20086;-93
2020/12/09 01:09:59;;;;;;;20.20;14.60;;;8.70;99.90;;;;;;4957358;28;20077;-88
2020/12/09 01:12:26;;;;;;;24.25;14.48;;;8.70;99.90;;;;;;4973851;28;20019;-87
2020/12/09 01:14:52;;;;;;;21.05;13.50;;;8.80;99.90;;;;;;4974827;28;20030;-88
2020/12/09 01:17:24;;;;;;;21.73;14.30;;;8.80;99.90;;;;;;4975349;28;20374;-91
2020/12/09 01:19:49;;;;;;;22.23;12.98;;;8.90;99.90;;;;;;4958110;28;20110;-94
2020/12/09 01:22:15;;;;;;;21.33;13.32;;;8.90;99.90;;;;;;4978590;28;20065;-90
2020/12/09 01:24:41;;;;;;;19.17;12.95;;;8.90;99.90;;;;;;4987130;28;20030;-94
2020/12/09 01:27:07;;;;;;;19.13;13.45;;;8.90;99.90;;;;;;4987744;28;20019;-86
2020/12/09 01:29:33;;;;;;;21.67;13.77;;;8.80;99.90;;;;;;4967863;28;20086;-85
2020/12/09 01:32:02;;;;;;;21.65;12.82;;;8.10;99.90;;;;;;4984284;28;20031;-90
2020/12/09 01:34:29;;;;;;;20.38;13.95;;;8.30;99.90;;;;;;4967944;28;20027;-88
2020/12/09 01:36:55;;;;;;;18.92;12.55;;;8.40;99.90;;;;;;4966859;28;20047;-81
2020/12/09 01:39:22;;;;;;;18.88;13.60;;;8.60;99.90;;;;;;4969127;28;20086;-90
2020/12/09 01:41:48;;;;;;;18.75;13.25;;;8.60;99.90;;;;;;4979994;28;20026;-90
2020/12/09 01:44:14;;;;;;;22.52;12.98;;;8.70;99.90;;;;;;4963271;28;20030;-89
2020/12/09 01:46:40;;;;;;;19.40;13.13;;;8.70;99.90;;;;;;4960195;28;20129;-93
2020/12/09 01:49:06;;;;;;;20.50;13.32;;;8.80;99.90;;;;;;4965516;28;20035;-83
2020/12/09 01:51:33;;;;;;;18.40;12.95;;;8.80;99.90;;;;;;4981483;28;20023;-89
2020/12/09 01:54:00;;;;;;;22.42;12.82;;;8.80;99.90;;;;;;4965366;28;20037;-94
2020/12/09 01:56:26;;;;;;;18.60;12.00;;;8.90;99.90;;;;;;4979379;28;20022;-89
2020/12/09 01:58:53;;;;;;;18.90;12.85;;;8.90;99.90;;;;;;4980002;28;20027;-93
2020/12/09 02:01:20;;;;;;;17.52;12.40;;;8.80;99.90;;;;;;4934875;28;20408;-82
2020/12/09 02:03:47;;;;;;;15.77;11.85;;;8.80;99.90;;;;;;4963961;28;20022;-88
2020/12/09 02:10:04;;;;;;;20.90;12.90;;;8.80;99.90;;;;;;5019699;23;20145;-93
2020/12/09 02:12:32;;;;;;;22.58;12.27;;;8.80;99.90;;;;;;5017567;28;20033;-87
2020/12/09 02:17:26;;;;;;;17.95;12.10;;;8.90;99.90;;;;;;5102277;22;20141;-85
2020/12/09 02:19:52;;;;;;;18.83;12.38;;;8.90;99.90;;;;;;4997243;28;20027;-86
2020/12/09 02:22:18;;;;;;;19.27;11.90;;;8.90;99.90;;;;;;4997118;28;20025;-90
2020/12/09 02:24:43;;;;;;;19.08;11.98;;;8.90;99.90;;;;;;4999227;28;20022;-85
2020/12/09 02:27:10;;;;;;;18.63;13.52;;;8.80;99.90;;;;;;4997319;28;20018;-82
2020/12/09 02:29:37;;;;;;;17.08;12.00;;;8.80;99.90;;;;;;5001139;28;20049;-90
2020/12/09 02:32:03;;;;;;;19.20;12.20;;;8.80;99.90;;;;;;5000688;28;20492;-88
2020/12/09 02:34:28;;;;;;;18.55;12.70;;;8.90;99.90;;;;;;4996910;28;20022;-89
2020/12/09 02:36:54;;;;;;;19.20;13.27;;;8.90;99.90;;;;;;4996671;28;20509;-90
2020/12/09 02:39:35;;;;;;;19.30;13.20;;;8.80;99.90;;;;;;4996692;28;20101;-88
2020/12/09 02:42:21;;;;;;;22.75;13.40;;;8.70;99.90;;;;;;4999723;28;20026;-94
2020/12/09 02:44:48;;;;;;;18.70;13.75;;;8.70;99.90;;;;;;4999015;28;20064;-90
2020/12/09 02:47:32;;;;;;;17.92;12.68;;;8.80;99.90;;;;;;4998282;28;20105;-91
2020/12/09 02:49:59;;;;;;;19.20;13.00;;;8.80;99.90;;;;;;5015978;28;20037;-85
2020/12/09 02:52:25;;;;;;;18.73;12.65;;;8.80;99.90;;;;;;5019444;28;20422;-83
2020/12/09 02:54:51;;;;;;;17.92;13.15;;;8.90;99.90;;;;;;5019252;28;20501;-90
2020/12/09 02:57:17;;;;;;;19.38;12.55;;;8.40;99.90;;;;;;5000627;28;20366;-82
2020/12/09 02:59:43;;;;;;;20.23;13.82;;;8.50;99.90;;;;;;5004310;28;20092;-83
2020/12/09 03:02:09;;;;;;;17.90;12.63;;;8.60;99.90;;;;;;4998221;28;20041;-88
2020/12/09 03:04:34;;;;;;;19.38;13.30;;;8.60;99.90;;;;;;5000794;28;20430;-85
2020/12/09 03:07:00;;;;;;;20.75;13.23;;;8.20;99.90;;;;;;5021305;28;20029;-84
2020/12/09 03:09:26;;;;;;;21.05;14.18;;;7.90;99.90;;;;;;5001784;28;20036;-90
2020/12/09 03:11:52;;;;;;;18.98;13.25;;;8.10;99.90;;;;;;5003836;28;20069;-93
2020/12/09 03:14:17;;;;;;;22.20;13.80;;;8.20;99.90;;;;;;4998596;28;20030;-92
2020/12/09 03:16:44;;;;;;;23.38;13.85;;;8.30;99.90;;;;;;4998279;28;20092;-89
2020/12/09 03:19:09;;;;;;;20.45;13.75;;;8.30;99.90;;;;;;4997903;28;20046;-90
2020/12/09 03:21:35;;;;;;;21.73;14.52;;;8.00;99.90;;;;;;5015291;28;20061;-90
2020/12/09 03:24:01;;;;;;;22.73;14.70;;;7.90;99.90;;;;;;5015264;28;20037;-88
2020/12/09 03:26:27;;;;;;;21.23;14.30;;;7.70;99.90;;;;;;4998167;28;20029;-87
2020/12/09 03:28:56;;;;;;;21.50;14.32;;;7.90;99.90;;;;;;5015476;28;20033;-86
2020/12/09 03:31:22;;;;;;;20.70;13.80;;;8.10;99.90;;;;;;4998276;28;20445;-86
2020/12/09 03:33:47;;;;;;;23.02;14.40;;;8.00;99.90;;;;;;5015008;28;20489;-89
2020/12/09 03:36:13;;;;;;;23.23;13.65;;;7.90;99.90;;;;;;4997484;28;20073;-87
2020/12/09 03:38:45;;;;;;;22.85;14.45;;;7.80;99.90;;;;;;4997544;28;20025;-85
2020/12/09 03:41:11;;;;;;;24.13;13.98;;;8.30;99.90;;;;;;4997569;28;20109;-83
2020/12/09 03:43:36;;;;;;;20.23;14.23;;;8.40;99.90;;;;;;4997471;28;20121;-90
2020/12/09 03:46:02;;;;;;;20.70;13.50;;;8.60;99.90;;;;;;5015577;28;20580;-92
2020/12/09 03:48:34;;;;;;;20.02;13.93;;;8.60;99.90;;;;;;5015069;28;20062;-93
2020/12/09 03:51:00;;;;;;;20.40;12.93;;;8.60;99.90;;;;;;4997812;28;20054;-86
2020/12/09 03:53:27;;;;;;;21.98;13.80;;;8.10;99.90;;;;;;4997340;28;20060;-86
2020/12/09 03:55:53;;;;;;;22.05;14.02;;;8.10;99.90;;;;;;5014727;28;20014;-84
2020/12/09 03:58:19;;;;;;;23.83;14.50;;;7.70;99.90;;;;;;5014472;28;20048;-89
2020/12/09 04:00:44;;;;;;;22.33;14.48;;;7.80;99.90;;;;;;4997020;28;20060;-83
2020/12/09 04:03:10;;;;;;;23.20;14.23;;;8.30;99.90;;;;;;5015110;28;20029;-89
2020/12/09 04:05:36;;;;;;;20.83;13.68;;;8.40;99.90;;;;;;5180603;23;20081;-89
2020/12/09 04:08:02;;;;;;;21.27;14.32;;;8.60;99.90;;;;;;4977333;28;20037;-89
2020/12/09 04:10:40;;;;;;;21.33;13.48;;;8.60;99.90;;;;;;4993259;28;20433;-91
2020/12/09 04:13:06;;;;;;;21.33;14.32;;;8.50;99.90;;;;;;4993613;28;20521;-91
2020/12/09 04:15:31;;;;;;;21.95;13.70;;;8.60;99.90;;;;;;5206366;23;20623;-85
2020/12/09 04:18:16;;;;;;;21.27;13.68;;;8.50;99.90;;;;;;4996876;28;20492;-84
2020/12/09 04:20:42;;;;;;;23.17;14.77;;;8.50;99.90;;;;;;4996934;28;20032;-86
2020/12/09 04:23:07;;;;;;;20.30;13.73;;;8.60;99.90;;;;;;5015078;28;20033;-83
2020/12/09 04:25:33;;;;;;;19.80;14.60;;;8.60;99.90;;;;;;5014627;28;20034;-90
2020/12/09 04:28:00;;;;;;;21.98;13.02;;;8.60;99.90;;;;;;4997715;28;20045;-83
2020/12/09 04:30:25;;;;;;;21.33;14.00;;;8.70;99.90;;;;;;5016386;28;20034;-87
2020/12/09 04:32:54;;;;;;;22.35;14.90;;;8.70;99.90;;;;;;5000001;28;20026;-88
2020/12/09 04:35:20;;;;;;;23.02;14.30;;;8.60;99.90;;;;;;5015861;28;20026;-87
2020/12/09 04:37:46;;;;;;;19.60;13.82;;;8.60;99.90;;;;;;4997095;28;20022;-88
2020/12/09 04:40:12;;;;;;;22.15;15.35;;;8.60;99.90;;;;;;4997090;28;20052;-91
2020/12/09 04:42:38;;;;;;;24.90;15.27;;;8.70;99.90;;;;;;4997549;28;20033;-87
2020/12/09 04:45:04;;;;;;;24.98;15.00;;;8.80;99.90;;;;;;4997292;28;20041;-90
2020/12/09 04:47:45;;;;;;;21.77;14.85;;;8.80;99.90;;;;;;5014138;28;20034;-88
2020/12/09 04:50:12;;;;;;;21.15;14.10;;;8.70;99.90;;;;;;4997029;28;20029;-85
2020/12/09 04:52:47;;;;;;;19.55;14.20;;;8.80;99.90;;;;;;5014698;28;20088;-91
2020/12/09 04:55:16;;;;;;;24.63;15.52;;;8.70;99.90;;;;;;4996850;28;20227;-84
2020/12/09 04:58:40;;;;;;;22.23;15.48;;;8.70;99.90;;;;;;5014380;28;20038;-88
2020/12/09 05:01:09;;;;;;;23.85;15.95;;;8.70;99.90;;;;;;4918447;29;20655;-89
2020/12/09 05:03:41;;;;;;;26.10;15.52;;;8.70;99.90;;;;;;4981936;28;20128;-88
2020/12/09 05:06:08;;;;;;;26.23;16.35;;;8.70;99.90;;;;;;5014304;28;20020;-87
2020/12/09 05:08:36;;;;;;;22.85;15.18;;;8.80;99.90;;;;;;4996914;28;20042;-93
2020/12/09 05:11:11;;;;;;;22.92;15.23;;;8.70;99.90;;;;;;4997218;28;20068;-87
2020/12/09 05:13:54;;;;;;;23.15;14.90;;;8.60;99.90;;;;;;4997150;28;20022;-87
2020/12/09 05:16:21;;;;;;;23.10;15.63;;;8.70;99.90;;;;;;5015359;28;20508;-83
2020/12/09 05:19:05;;;;;;;26.77;16.23;;;8.70;99.90;;;;;;5014908;28;20030;-91
2020/12/09 05:21:35;;;;;;;23.92;15.35;;;8.70;99.90;;;;;;5017881;28;20026;-83
2020/12/09 05:24:07;;;;;;;23.67;15.38;;;8.60;99.90;;;;;;5017116;28;20402;-86
2020/12/09 05:26:38;;;;;;;24.17;15.38;;;8.30;99.90;;;;;;4996576;28;20038;-91
2020/12/09 05:29:16;;;;;;;25.55;16.25;;;8.30;99.90;;;;;;5014482;28;20120;-89
2020/12/09 05:31:46;;;;;;;32.72;19.90;;;8.40;99.90;;;;;;5013610;28;20018;-88
2020/12/09 05:34:21;;;;;;;35.45;22.17;;;8.30;99.90;;;;;;5014093;28;20030;-90
2020/12/09 05:36:56;;;;;;;36.47;23.58;;;8.20;99.90;;;;;;4996693;28;20411;-92
2020/12/09 05:39:33;;;;;;;38.03;23.48;;;8.20;99.90;;;;;;4997075;28;20386;-88
2020/12/09 05:42:16;;;;;;;40.15;23.58;;;8.40;99.90;;;;;;4998991;28;20045;-87
2020/12/09 05:44:43;;;;;;;41.97;25.90;;;8.50;99.90;;;;;;5024694;28;20006;-95
2020/12/09 05:47:10;;;;;;;41.95;26.30;;;8.60;99.90;;;;;;5019781;28;20034;-94
2020/12/09 05:49:39;;;;;;;44.95;26.38;;;8.70;99.90;;;;;;4996422;28;20038;-92
2020/12/09 05:52:15;;;;;;;43.88;28.20;;;8.60;99.90;;;;;;4996005;28;20025;-93
2020/12/09 05:54:46;;;;;;;48.70;30.02;;;8.10;99.90;;;;;;5013755;28;20026;-90
2020/12/09 05:57:15;;;;;;;47.50;29.58;;;7.70;99.90;;;;;;5013586;28;20026;-90
2020/12/09 05:59:42;;;;;;;47.25;29.95;;;7.70;99.90;;;;;;4996139;28;20036;-91
2020/12/09 06:02:32;;;;;;;46.63;29.40;;;7.70;99.90;;;;;;4996808;28;20026;-90
2020/12/09 06:05:00;;;;;;;44.35;29.27;;;7.80;99.90;;;;;;5007029;28;20041;-89
2020/12/09 06:07:27;;;;;;;51.35;29.85;;;7.70;99.90;;;;;;4997209;28;20113;-88
2020/12/09 06:10:14;;;;;;;50.25;31.33;;;7.70;99.90;;;;;;4997415;28;20026;-93
2020/12/09 06:13:10;;;;;;;48.08;30.00;;;7.70;99.90;;;;;;4999434;28;20022;-91
2020/12/09 06:15:42;;;;;;;48.42;30.80;;;7.90;99.90;;;;;;5031968;28;20443;-93
2020/12/09 06:18:15;;;;;;;50.55;30.48;;;8.00;99.90;;;;;;5006671;28;20032;-90
2020/12/09 06:20:42;;;;;;;46.53;28.88;;;8.00;99.90;;;;;;5029981;28;20111;-86
2020/12/09 06:23:14;;;;;;;54.78;33.17;;;8.20;99.90;;;;;;5024284;28;20022;-81
2020/12/09 06:25:47;;;;;;;49.67;30.33;;;8.00;99.90;;;;;;5004771;28;20116;-80
2020/12/09 06:28:21;;;;;;;58.50;33.13;;;8.50;99.90;;;;;;4993269;28;20088;-80
2020/12/09 06:30:49;;;;;;;108.78;56.17;;;9.00;99.90;;;;;;4990702;28;20069;-81
2020/12/09 06:33:32;;;;;;;107.90;62.50;;;9.80;99.90;;;;;;5012281;28;20049;-79
2020/12/09 06:36:37;;;;;;;233.30;126.95;;;10.00;99.90;;;;;;4978281;28;20039;-80
2020/12/09 06:39:12;;;;;;;64.85;40.63;;;10.50;99.90;;;;;;4977997;28;20065;-81
2020/12/09 06:41:41;;;;;;;50.92;32.22;;;9.80;99.90;;;;;;4987091;28;20018;-81
2020/12/09 06:44:19;;;;;;;44.47;29.73;;;9.50;99.90;;;;;;4998190;28;20034;-83
2020/12/09 06:46:53;;;;;;;46.95;30.00;;;9.10;99.90;;;;;;5015092;28;20033;-87
2020/12/09 06:49:32;;;;;;;50.55;29.92;;;8.70;99.90;;;;;;4997984;28;20033;-88
2020/12/09 06:55:22;;;;;;;43.50;28.15;;;8.10;99.90;;;;;;5016575;28;20057;-85
2020/12/09 06:58:14;;;;;;;50.28;30.88;;;8.00;99.90;;;;;;5011741;28;20026;-80
2020/12/09 07:01:02;;;;;;;46.58;28.77;;;7.70;99.90;;;;;;5011187;28;20030;-88
2020/12/09 07:03:29;;;;;;;49.65;29.25;;;7.90;99.90;;;;;;5004527;28;20075;-79
2020/12/09 07:06:16;;;;;;;61.72;37.45;;;8.20;99.90;;;;;;4996348;28;20033;-80
2020/12/09 07:08:57;;;;;;;46.78;29.60;;;9.20;99.90;;;;;;4984122;28;20385;-83
2020/12/09 07:11:22;;;;;;;46.13;27.17;;;8.50;99.90;;;;;;5001731;28;20030;-78
2020/12/09 07:13:48;;;;;;;42.13;27.23;;;7.90;99.90;;;;;;4994823;28;20088;-78
2020/12/09 07:16:27;;;;;;;50.80;27.38;;;7.90;99.90;;;;;;5026562;28;20445;-81
2020/12/09 07:18:53;;;;;;;46.35;27.77;;;7.90;99.90;;;;;;5012864;28;20380;-78
2020/12/09 07:21:28;;;;;;;41.10;26.83;;;7.90;99.90;;;;;;5014120;28;20362;-78
2020/12/09 07:23:58;;;;;;;40.53;26.13;;;8.10;99.90;;;;;;5001804;28;20030;-78
2020/12/09 07:26:24;;;;;;;41.47;27.10;;;8.40;99.90;;;;;;5017614;28;20038;-80
2020/12/09 07:28:53;;;;;;;44.67;27.60;;;8.60;99.90;;;;;;4978943;28;20437;-81
2020/12/09 07:31:19;;;;;;;45.00;27.67;;;8.90;99.90;;;;;;4996181;28;20022;-80
2020/12/09 07:33:44;;;;;;;43.90;25.27;;;9.00;99.90;;;;;;5013480;28;20026;-78
2020/12/09 07:36:11;;;;;;;44.10;26.65;;;8.70;99.90;;;;;;5013682;28;20084;-81
2020/12/09 07:38:44;;;;;;;40.72;24.63;;;8.00;99.90;;;;;;5003625;28;20030;-79
2020/12/09 07:41:09;;;;;;;41.95;23.80;;;8.20;99.90;;;;;;4999193;28;20355;-81
2020/12/09 07:43:35;;;;;;;39.50;25.30;;;8.30;99.90;;;;;;4995927;28;20588;-80
2020/12/09 07:46:03;;;;;;;39.45;23.70;;;8.60;99.90;;;;;;5011515;28;20515;-80
2020/12/09 07:48:30;;;;;;;40.55;25.02;;;8.60;99.90;;;;;;5005936;28;20092;-80
2020/12/09 07:50:58;;;;;;;44.85;25.75;;;8.60;99.90;;;;;;5013743;28;20347;-79
2020/12/09 07:53:24;;;;;;;43.33;23.75;;;8.70;99.90;;;;;;5010439;28;20045;-79
2020/12/09 07:55:51;;;;;;;38.22;24.08;;;8.90;99.90;;;;;;5013261;28;20064;-80
2020/12/09 07:58:18;;;;;;;44.17;24.77;;;8.90;99.90;;;;;;5012890;28;20412;-79
2020/12/09 08:00:47;;;;;;;38.22;22.75;;;9.00;99.90;;;;;;5013290;28;20087;-79
2020/12/09 08:03:28;;;;;;;34.00;20.58;;;9.00;99.90;;;;;;5013811;28;20025;-85
2020/12/09 08:05:56;;;;;;;38.90;21.95;;;8.60;99.90;;;;;;4987845;28;20018;-82
2020/12/09 08:08:25;;;;;;;33.50;21.73;;;8.60;99.90;;;;;;4981991;28;20066;-79
2020/12/09 08:10:51;;;;;;;35.15;22.17;;;8.50;99.90;;;;;;4985799;28;20030;-84
2020/12/09 08:13:24;;;;;;;41.03;24.75;;;8.60;99.90;;;;;;4985068;28;20600;-80
2020/12/09 08:16:08;;;;;;;35.28;22.35;;;8.30;99.90;;;;;;5007126;28;20050;-83
2020/12/09 08:18:43;;;;;;;40.20;24.02;;;8.30;99.90;;;;;;4998983;28;20023;-82
2020/12/09 08:21:10;;;;;;;38.90;23.08;;;8.50;99.90;;;;;;4986626;28;20098;-80
2020/12/09 08:23:40;;;;;;;40.70;23.90;;;8.50;99.90;;;;;;5000726;28;20069;-81
2020/12/09 08:26:07;;;;;;;39.10;24.90;;;8.50;99.90;;;;;;5000895;28;20133;-84
2020/12/09 08:28:35;;;;;;;42.25;24.40;;;8.60;99.90;;;;;;5001115;28;20038;-80
2020/12/09 08:31:16;;;;;;;41.55;24.35;;;8.60;99.90;;;;;;5002818;28;20029;-79
2020/12/09 08:33:42;;;;;;;34.70;22.00;;;8.80;99.90;;;;;;4984962;28;20126;-81
2020/12/09 08:36:13;;;;;;;43.92;24.35;;;9.00;99.90;;;;;;5006697;28;20094;-80
2020/12/09 08:38:41;;;;;;;43.90;26.75;;;9.30;99.90;;;;;;5012424;28;20049;-82
2020/12/09 08:41:10;;;;;;;46.33;26.45;;;9.30;99.90;;;;;;5012060;28;20453;-80
2020/12/09 08:43:38;;;;;;;44.05;26.20;;;9.40;99.90;;;;;;4982173;28;20507;-79
2020/12/09 08:46:08;;;;;;;42.47;25.23;;;9.30;99.90;;;;;;5000519;28;20014;-79
2020/12/09 08:48:36;;;;;;;40.80;25.63;;;9.10;99.90;;;;;;4983119;28;20048;-78
2020/12/09 08:51:02;;;;;;;42.30;25.52;;;8.90;99.90;;;;;;4984874;28;20260;-80
2020/12/09 08:53:28;;;;;;;39.35;26.00;;;9.20;99.90;;;;;;4983208;28;20030;-79
2020/12/09 08:55:54;;;;;;;43.63;26.40;;;9.40;99.90;;;;;;4979900;28;20026;-80
2020/12/09 08:58:21;;;;;;;41.25;25.55;;;9.60;99.90;;;;;;4984644;28;20034;-79
2020/12/09 09:00:47;;;;;;;43.60;25.58;;;9.70;99.90;;;;;;4983256;28;20359;-80
2020/12/09 09:03:20;;;;;;;39.72;25.30;;;9.80;99.90;;;;;;5000518;28;20018;-81
2020/12/09 09:05:47;;;;;;;39.20;23.40;;;9.90;99.90;;;;;;5002686;28;20030;-80
2020/12/09 09:08:14;;;;;;;35.28;23.45;;;9.90;99.90;;;;;;5000216;28;20030;-80
2020/12/09 09:10:41;;;;;;;39.58;23.23;;;9.60;99.90;;;;;;4984710;28;20050;-80
2020/12/09 09:13:07;;;;;;;34.80;21.90;;;9.70;99.90;;;;;;5002659;28;20029;-79
2020/12/09 09:15:34;;;;;;;30.90;19.67;;;9.80;99.90;;;;;;4981863;28;20053;-79
2020/12/09 09:18:04;;;;;;;33.03;21.48;;;9.20;99.90;;;;;;5002250;28;20035;-86
2020/12/09 09:20:30;;;;;;;31.67;19.70;;;9.30;99.90;;;;;;5008741;28;20014;-80
2020/12/09 09:22:56;;;;;;;34.80;21.55;;;9.20;99.90;;;;;;5011759;28;20166;-82
2020/12/09 09:25:22;;;;;;;39.80;23.13;;;9.00;99.90;;;;;;5011972;28;20166;-80
2020/12/09 09:27:49;;;;;;;38.42;23.08;;;8.90;99.90;;;;;;5011359;28;20125;-80
2020/12/09 09:30:15;;;;;;;35.85;22.42;;;9.20;99.90;;;;;;5011052;28;20438;-80
2020/12/09 09:32:41;;;;;;;29.30;20.05;;;9.50;99.90;;;;;;4993778;28;20385;-79
2020/12/09 09:35:07;;;;;;;34.30;20.48;;;9.40;99.90;;;;;;4993772;28;20503;-80
2020/12/09 09:37:33;;;;;;;30.38;18.35;;;9.30;99.90;;;;;;4993711;28;20108;-80
2020/12/09 09:39:59;;;;;;;32.47;19.90;;;9.10;99.90;;;;;;5011289;28;20033;-79
2020/12/09 09:42:25;;;;;;;30.10;18.40;;;9.00;99.90;;;;;;4993547;28;20128;-80
2020/12/09 09:44:51;;;;;;;32.67;20.27;;;9.10;99.90;;;;;;5001242;28;20014;-80
2020/12/09 09:47:19;;;;;;;31.85;20.33;;;9.50;99.90;;;;;;4974184;28;20031;-80
2020/12/09 09:49:44;;;;;;;31.20;19.40;;;9.60;99.90;;;;;;4974382;28;20065;-80
2020/12/09 09:52:10;;;;;;;30.67;18.85;;;9.60;99.90;;;;;;4991754;28;20053;-80
2020/12/09 09:54:36;;;;;;;31.90;19.25;;;9.70;99.90;;;;;;4974238;28;20062;-80
2020/12/09 09:57:03;;;;;;;31.38;17.67;;;9.70;99.90;;;;;;5009712;28;20179;-81
2020/12/09 09:59:30;;;;;;;29.23;18.17;;;9.80;99.90;;;;;;4986492;28;20023;-82
2020/12/09 10:01:56;;;;;;;26.00;17.27;;;9.90;99.90;;;;;;4994001;28;20022;-81
2020/12/09 10:04:22;;;;;;;28.83;19.33;;;9.30;99.90;;;;;;4983939;28;20026;-81
2020/12/09 10:06:50;;;;;;;30.95;18.73;;;9.50;99.90;;;;;;5000032;28;20023;-87
2020/12/09 10:09:17;;;;;;;32.53;20.00;;;9.60;99.90;;;;;;5002597;28;20038;-83
2020/12/09 10:11:43;;;;;;;35.03;21.77;;;9.40;99.90;;;;;;5003094;28;20090;-84
2020/12/09 10:14:09;;;;;;;35.20;22.60;;;9.20;99.90;;;;;;4980529;28;20121;-80
2020/12/09 10:16:36;;;;;;;37.30;23.00;;;9.30;99.90;;;;;;4980365;28;20057;-81
2020/12/09 10:19:03;;;;;;;36.20;22.50;;;10.50;99.90;;;;;;5002841;28;20026;-80
2020/12/09 10:21:31;;;;;;;37.78;23.65;;;10.70;99.90;;;;;;5000983;28;20034;-79
2020/12/09 10:23:58;;;;;;;38.08;24.25;;;10.30;99.90;;;;;;5008345;28;20108;-80
2020/12/09 10:26:33;;;;;;;44.10;27.00;;;10.20;99.90;;;;;;5002109;28;20069;-79
2020/12/09 10:29:01;;;;;;;47.22;28.27;;;10.10;99.90;;;;;;5012068;28;20058;-83
2020/12/09 10:31:47;;;;;;;45.83;28.40;;;9.80;99.90;;;;;;5013908;28;20384;-84
2020/12/09 10:34:18;;;;;;;44.35;27.73;;;9.90;99.90;;;;;;5014723;28;20048;-79
2020/12/09 10:36:48;;;;;;;48.08;29.35;;;10.00;99.90;;;;;;5014413;28;20022;-80
2020/12/09 10:39:16;;;;;;;49.15;30.38;;;10.10;99.90;;;;;;5014969;28;20045;-81
2020/12/09 10:41:42;;;;;;;49.33;29.60;;;10.20;99.90;;;;;;4996365;28;20045;-80
2020/12/09 10:44:09;;;;;;;46.42;28.73;;;10.40;99.90;;;;;;5010075;28;20098;-81
2020/12/09 10:46:45;;;;;;;46.25;28.27;;;10.40;99.90;;;;;;4988239;28;20072;-82
2020/12/09 10:49:12;;;;;;;43.38;28.20;;;10.20;99.90;;;;;;5014693;28;20034;-85
2020/12/09 10:51:48;;;;;;;42.13;26.67;;;9.80;99.90;;;;;;5017269;28;20033;-82
2020/12/09 10:54:15;;;;;;;43.17;27.10;;;9.60;99.90;;;;;;5016349;28;20066;-86
2020/12/09 10:56:42;;;;;;;45.90;29.33;;;9.70;99.90;;;;;;5009919;28;20033;-86
2020/12/09 10:59:08;;;;;;;43.00;27.40;;;9.70;99.90;;;;;;5014486;28;20022;-87
2020/12/09 11:01:34;;;;;;;38.78;25.33;;;9.60;99.90;;;;;;5015160;28;20030;-80
2020/12/09 11:04:02;;;;;;;41.38;26.48;;;9.80;99.90;;;;;;4997251;28;20370;-82
2020/12/09 11:06:33;;;;;;;40.20;25.80;;;9.70;99.90;;;;;;4996410;28;20076;-86
2020/12/09 11:09:04;;;;;;;45.60;26.77;;;9.60;99.90;;;;;;5014400;28;20046;-82
2020/12/09 11:11:31;;;;;;;43.53;27.48;;;9.40;99.90;;;;;;4988627;28;20027;-84
2020/12/09 11:13:57;;;;;;;40.25;26.83;;;9.30;99.90;;;;;;4992545;28;20030;-81
2020/12/09 11:16:23;;;;;;;43.05;25.85;;;9.30;99.90;;;;;;4999794;28;20136;-80
2020/12/09 11:18:50;;;;;;;46.90;26.50;;;9.50;99.90;;;;;;4977809;28;20023;-86
2020/12/09 11:21:23;;;;;;;38.20;24.55;;;9.40;99.90;;;;;;4993097;28;20077;-82
2020/12/09 11:23:50;;;;;;;43.50;25.25;;;9.40;99.90;;;;;;4977376;28;20030;-80
2020/12/09 11:26:17;;;;;;;44.00;25.13;;;9.60;99.90;;;;;;5012035;28;20014;-82
2020/12/09 11:28:43;;;;;;;36.58;23.45;;;9.50;99.90;;;;;;5014626;28;20030;-84
2020/12/09 11:31:09;;;;;;;38.78;24.05;;;9.60;99.90;;;;;;5013992;28;20033;-82
2020/12/09 11:33:35;;;;;;;39.85;24.05;;;9.60;99.90;;;;;;5013438;28;20026;-80
2020/12/09 11:36:02;;;;;;;38.10;23.40;;;9.70;99.90;;;;;;5013174;28;20030;-81
2020/12/09 11:38:28;;;;;;;38.45;23.33;;;9.40;99.90;;;;;;4996470;28;20029;-83
2020/12/09 11:40:54;;;;;;;36.88;23.88;;;9.30;99.90;;;;;;4995938;28;20130;-84
2020/12/09 11:43:20;;;;;;;34.13;23.45;;;9.40;99.90;;;;;;5013833;28;20030;-81
2020/12/09 11:45:47;;;;;;;34.42;22.45;;;9.60;99.90;;;;;;4996361;28;20026;-81
2020/12/09 11:48:13;;;;;;;33.17;22.25;;;9.80;99.90;;;;;;5013583;28;20053;-88
2020/12/09 11:50:39;;;;;;;38.88;22.15;;;10.00;99.90;;;;;;5013538;28;20017;-81
2020/12/09 11:53:05;;;;;;;38.83;22.50;;;10.10;99.90;;;;;;5013553;28;20086;-82
2020/12/09 11:55:31;;;;;;;31.13;21.23;;;10.10;99.90;;;;;;4997022;28;20034;-82
2020/12/09 11:57:57;;;;;;;33.60;21.55;;;10.20;99.90;;;;;;5013311;28;20057;-83
2020/12/09 12:00:23;;;;;;;35.83;22.42;;;10.30;99.90;;;;;;5007200;28;20026;-85
2020/12/09 12:02:48;;;;;;;38.53;23.95;;;10.40;99.90;;;;;;5016569;28;20120;-80
2020/12/09 12:05:15;;;;;;;40.40;23.42;;;10.50;99.90;;;;;;5028753;28;20108;-81
2020/12/09 12:07:41;;;;;;;42.00;26.30;;;10.30;99.90;;;;;;5004326;28;20448;-78
2020/12/09 12:10:07;;;;;;;40.47;25.08;;;10.20;99.90;;;;;;4986516;28;20044;-86
2020/12/09 12:12:32;;;;;;;43.50;25.75;;;10.20;99.90;;;;;;4998645;28;20058;-90
2020/12/09 12:14:58;;;;;;;38.90;25.08;;;10.10;99.90;;;;;;5005312;28;20077;-84
2020/12/09 12:17:25;;;;;;;44.55;25.05;;;10.00;99.90;;;;;;5008407;28;20030;-83
2020/12/09 12:19:51;;;;;;;41.53;25.75;;;10.00;99.90;;;;;;5007114;28;20026;-89
2020/12/09 12:22:17;;;;;;;41.15;25.58;;;10.00;99.90;;;;;;5003889;28;20034;-88
2020/12/09 12:24:43;;;;;;;40.95;25.48;;;10.10;99.90;;;;;;4976008;28;20035;-79
2020/12/09 12:27:09;;;;;;;45.10;27.58;;;10.30;99.90;;;;;;5006391;28;20014;-80
2020/12/09 12:29:35;;;;;;;46.80;30.98;;;10.00;99.90;;;;;;5013074;28;20116;-79
2020/12/09 12:35:18;;;;;;;46.97;29.27;;;9.80;99.90;;;;;;4983359;28;20076;-86
2020/12/09 12:37:44;;;;;;;44.40;29.27;;;9.80;99.90;;;;;;5013591;28;20026;-85
2020/12/09 12:40:10;;;;;;;45.78;28.63;;;9.80;99.90;;;;;;4991338;28;20030;-79
2020/12/09 12:42:36;;;;;;;44.45;27.13;;;9.50;99.90;;;;;;5006113;28;20026;-85
2020/12/09 12:45:03;;;;;;;40.58;24.35;;;9.50;99.90;;;;;;5013918;28;20022;-84
2020/12/09 12:47:29;;;;;;;37.55;24.23;;;9.50;99.90;;;;;;4976974;28;20037;-86
2020/12/09 12:49:55;;;;;;;38.45;24.58;;;9.50;99.90;;;;;;4994354;28;20026;-90
2020/12/09 12:52:21;;;;;;;38.90;25.70;;;9.60;99.90;;;;;;4993744;28;20113;-84
2020/12/09 12:54:46;;;;;;;38.53;24.52;;;9.50;99.90;;;;;;4975844;28;20069;-81
2020/12/09 12:57:12;;;;;;;39.63;24.67;;;9.50;99.90;;;;;;5009029;28;20080;-86